Texas City — WDD4983 — position and weather

sailwx.info

Track history (hours):
 
Tides and Currents Weather Stations Pressure Air Temp Water Temp Dewpoint Dewpoint Depression Visibility Wind Speed Wind Dir Waves Ship Positions

Texas City

More information available from US FCC via Universal Licensing System and Coast Guard Vessel Documentation Center.

Last reported at 2014-Sep-18 11:25 UTC. Time now 2014-Sep-18 13:44 UTC.
Position N 30°02' W 091°16'.

Length 28 m; draft 3 m.

Type: Tug. MMSI: 367135470.

Date/timePositionNaut miles runAvg speedWind from/ knotsBaromVisibWave heightAir tempDewpointWater temp
2014-Sep-18 11:25N 30°02' W 091°16'4 4.2
2014-Sep-18 10:25N 29°58' W 091°16'7 3.7
2014-Sep-18 08:27N 29°52' W 091°12'3 3.0
2014-Sep-18 07:33N 29°49' W 091°10'5 4.6
2014-Sep-18 06:33N 29°45' W 091°11'4 3.6
2014-Sep-18 05:33N 29°42' W 091°13'3 2.8
2014-Sep-18 04:33N 29°39' W 091°15'3 2.5
2014-Sep-18 03:33N 29°39' W 091°18'4 4.2
2014-Sep-18 02:33N 29°39' W 091°22'5 5.0
2014-Sep-18 01:27N 29°41' W 091°28'4 4.3
2014-Sep-18 00:28N 29°43' W 091°33'  
Track history (hours):
 
Tides and Currents Weather Stations Pressure Air Temp Water Temp Dewpoint Dewpoint Depression Visibility Wind Speed Wind Dir Waves Ship Positions

Texas City

More information available from US FCC via Universal Licensing System and Coast Guard Vessel Documentation Center.

Last reported at 2014-Sep-18 11:25 UTC. Time now 2014-Sep-18 13:44 UTC.
Position N 30°02' W 091°16'.

Length 28 m; draft 3 m.

Type: Tug. MMSI: 367135470.

Date/timePositionNaut miles runAvg speedWind from/ knotsBaromVisibWave heightAir tempDewpointWater temp
2014-Sep-18 11:25N 30°02' W 091°16'4 4.2
2014-Sep-18 10:25N 29°58' W 091°16'7 3.7
2014-Sep-18 08:27N 29°52' W 091°12'3 3.0
2014-Sep-18 07:33N 29°49' W 091°10'5 4.6
2014-Sep-18 06:33N 29°45' W 091°11'4 3.6
2014-Sep-18 05:33N 29°42' W 091°13'3 2.8
2014-Sep-18 04:33N 29°39' W 091°15'3 2.5
2014-Sep-18 03:33N 29°39' W 091°18'4 4.2
2014-Sep-18 02:33N 29°39' W 091°22'5 5.0
2014-Sep-18 01:27N 29°41' W 091°28'4 4.3
2014-Sep-18 00:28N 29°43' W 091°33'  

Dump ship's entire track history